sensor_id;sensor_type;location;lat;lon;timestamp;pressure;altitude;pressure_sealevel;temperature;humidity
27294;BME280;14785;52.556;13.430;2024-01-10T00:01:58;-19328.91;;;-2.25;100.00
27294;BME280;14785;52.556;13.430;2024-01-10T00:04:23;-19331.94;;;-2.15;100.00
27294;BME280;14785;52.556;13.430;2024-01-10T00:06:49;-19332.56;;;-2.13;100.00
27294;BME280;14785;52.556;13.430;2024-01-10T00:09:14;-19336.53;;;-2.00;100.00
27294;BME280;14785;52.556;13.430;2024-01-10T00:11:39;-19333.78;;;-2.09;100.00
27294;BME280;14785;52.556;13.430;2024-01-10T00:14:05;-19328.13;;;-2.28;100.00
27294;BME280;14785;52.556;13.430;2024-01-10T00:16:30;-19327.97;;;-2.28;100.00
27294;BME280;14785;52.556;13.430;2024-01-10T00:18:56;-19321.25;;;-2.50;100.00
27294;BME280;14785;52.556;13.430;2024-01-10T00:21:21;-19303.84;;;-3.07;100.00
27294;BME280;14785;52.556;13.430;2024-01-10T00:23:47;-19308.44;;;-2.92;100.00
27294;BME280;14785;52.556;13.430;2024-01-10T00:26:12;-19316.69;;;-2.65;100.00
27294;BME280;14785;52.556;13.430;2024-01-10T00:28:37;-19323.84;;;-2.42;100.00
27294;BME280;14785;52.556;13.430;2024-01-10T00:31:03;-19326.75;;;-2.32;100.00
27294;BME280;14785;52.556;13.430;2024-01-10T00:33:29;-19332.41;;;-2.14;100.00
27294;BME280;14785;52.556;13.430;2024-01-10T00:35:54;-19331.03;;;-2.18;100.00
27294;BME280;14785;52.556;13.430;2024-01-10T00:38:20;-19328.59;;;-2.26;100.00
27294;BME280;14785;52.556;13.430;2024-01-10T00:40:45;-19329.19;;;-2.24;100.00
27294;BME280;14785;52.556;13.430;2024-01-10T00:43:11;-19325.53;;;-2.36;100.00
27294;BME280;14785;52.556;13.430;2024-01-10T00:45:36;-19325.53;;;-2.36;100.00
27294;BME280;14785;52.556;13.430;2024-01-10T00:48:03;-19321.25;;;-2.50;100.00
27294;BME280;14785;52.556;13.430;2024-01-10T00:50:28;-19318.22;;;-2.60;100.00
27294;BME280;14785;52.556;13.430;2024-01-10T00:52:54;-19321.72;;;-2.49;100.00
27294;BME280;14785;52.556;13.430;2024-01-10T00:55:20;-19320.19;;;-2.54;100.00
27294;BME280;14785;52.556;13.430;2024-01-10T00:57:46;-19318.22;;;-2.60;100.00
27294;BME280;14785;52.556;13.430;2024-01-10T01:00:13;-19323.56;;;-2.43;100.00
27294;BME280;14785;52.556;13.430;2024-01-10T01:02:39;-19311.78;;;-2.81;100.00
27294;BME280;14785;52.556;13.430;2024-01-10T01:05:05;-19319.28;;;-2.57;100.00
27294;BME280;14785;52.556;13.430;2024-01-10T01:07:32;-19326.44;;;-2.33;100.00
27294;BME280;14785;52.556;13.430;2024-01-10T01:09:57;-19317.91;;;-2.61;100.00
27294;BME280;14785;52.556;13.430;2024-01-10T01:12:22;-19321.25;;;-2.50;100.00
27294;BME280;14785;52.556;13.430;2024-01-10T01:14:48;-19331.19;;;-2.18;100.00
27294;BME280;14785;52.556;13.430;2024-01-10T01:17:13;-19331.66;;;-2.16;100.00
27294;BME280;14785;52.556;13.430;2024-01-10T01:19:38;-19338.66;;;-1.93;100.00
27294;BME280;14785;52.556;13.430;2024-01-10T01:22:04;-19338.66;;;-1.93;100.00
27294;BME280;14785;52.556;13.430;2024-01-10T01:24:29;-19338.19;;;-1.95;100.00
27294;BME280;14785;52.556;13.430;2024-01-10T01:26:55;-19337.44;;;-1.97;100.00
27294;BME280;14785;52.556;13.430;2024-01-10T01:29:20;-19338.34;;;-1.94;100.00
27294;BME280;14785;52.556;13.430;2024-01-10T01:31:47;-19339.88;;;-1.89;100.00
27294;BME280;14785;52.556;13.430;2024-01-10T01:34:12;-19338.34;;;-1.94;100.00
27294;BME280;14785;52.556;13.430;2024-01-10T01:36:37;-19333.47;;;-2.10;100.00
27294;BME280;14785;52.556;13.430;2024-01-10T01:39:03;-19330.44;;;-2.20;100.00
27294;BME280;14785;52.556;13.430;2024-01-10T01:41:28;-19325.22;;;-2.37;100.00
27294;BME280;14785;52.556;13.430;2024-01-10T01:43:53;-19329.81;;;-2.22;100.00
27294;BME280;14785;52.556;13.430;2024-01-10T01:46:19;-19331.03;;;-2.18;100.00
27294;BME280;14785;52.556;13.430;2024-01-10T01:48:44;-19328.28;;;-2.27;100.00
27294;BME280;14785;52.556;13.430;2024-01-10T01:51:11;-19326.44;;;-2.33;100.00
27294;BME280;14785;52.556;13.430;2024-01-10T01:53:38;-19317.59;;;-2.62;100.00
27294;BME280;14785;52.556;13.430;2024-01-10T01:56:09;-19310.13;;;-2.87;100.00
27294;BME280;14785;52.556;13.430;2024-01-10T01:58:36;-19318.06;;;-2.61;100.00
27294;BME280;14785;52.556;13.430;2024-01-10T02:01:03;-19324.63;;;-2.39;100.00
27294;BME280;14785;52.556;13.430;2024-01-10T02:03:30;-19324.00;;;-2.41;100.00
27294;BME280;14785;52.556;13.430;2024-01-10T02:05:56;-19329.81;;;-2.22;100.00
27294;BME280;14785;52.556;13.430;2024-01-10T02:08:22;-19328.91;;;-2.25;100.00
27294;BME280;14785;52.556;13.430;2024-01-10T02:10:47;-19330.13;;;-2.21;100.00
27294;BME280;14785;52.556;13.430;2024-01-10T02:13:13;-19329.81;;;-2.22;100.00
27294;BME280;14785;52.556;13.430;2024-01-10T02:15:38;-19320.34;;;-2.53;100.00
27294;BME280;14785;52.556;13.430;2024-01-10T02:18:04;-19306.59;;;-2.98;100.00
27294;BME280;14785;52.556;13.430;2024-01-10T02:20:35;-19313.03;;;-2.77;100.00
27294;BME280;14785;52.556;13.430;2024-01-10T02:23:01;-19318.38;;;-2.60;100.00
27294;BME280;14785;52.556;13.430;2024-01-10T02:25:26;-19323.41;;;-2.43;100.00
27294;BME280;14785;52.556;13.430;2024-01-10T02:27:51;-19329.06;;;-2.25;100.00
27294;BME280;14785;52.556;13.430;2024-01-10T02:30:17;-19329.50;;;-2.23;100.00
27294;BME280;14785;52.556;13.430;2024-01-10T02:32:42;-19312.09;;;-2.80;100.00
27294;BME280;14785;52.556;13.430;2024-01-10T02:35:08;-19319.13;;;-2.57;100.00
27294;BME280;14785;52.556;13.430;2024-01-10T02:37:34;-19297.44;;;-3.28;100.00
27294;BME280;14785;52.556;13.430;2024-01-10T02:40:00;-19281.88;;;-3.79;100.00
27294;BME280;14785;52.556;13.430;2024-01-10T02:42:27;-19282.31;;;-3.78;100.00
27294;BME280;14785;52.556;13.430;2024-01-10T02:44:53;-19284.63;;;-3.70;100.00
27294;BME280;14785;52.556;13.430;2024-01-10T02:47:19;-19269.34;;;-4.21;100.00
27294;BME280;14785;52.556;13.430;2024-01-10T02:49:45;-19267.06;;;-4.28;100.00
27294;BME280;14785;52.556;13.430;2024-01-10T02:52:10;-19258.34;;;-4.57;100.00
27294;BME280;14785;52.556;13.430;2024-01-10T02:54:36;-19287.97;;;-3.59;100.00
27294;BME280;14785;52.556;13.430;2024-01-10T02:57:01;-19289.50;;;-3.54;100.00
27294;BME280;14785;52.556;13.430;2024-01-10T02:59:26;-19287.38;;;-3.61;100.00
27294;BME280;14785;52.556;13.430;2024-01-10T03:01:52;-19299.28;;;-3.22;100.00
27294;BME280;14785;52.556;13.430;2024-01-10T03:04:17;-19295.78;;;-3.34;100.00
27294;BME280;14785;52.556;13.430;2024-01-10T03:06:43;-19287.38;;;-3.61;100.00
27294;BME280;14785;52.556;13.430;2024-01-10T03:09:08;-19289.50;;;-3.54;100.00
27294;BME280;14785;52.556;13.430;2024-01-10T03:11:34;-19300.50;;;-3.18;100.00
27294;BME280;14785;52.556;13.430;2024-01-10T03:14:03;-19310.28;;;-2.86;100.00
27294;BME280;14785;52.556;13.430;2024-01-10T03:16:32;-19309.50;;;-2.89;100.00
27294;BME280;14785;52.556;13.430;2024-01-10T03:18:57;-19313.63;;;-2.75;100.00
27294;BME280;14785;52.556;13.430;2024-01-10T03:21:23;-19315.78;;;-2.68;100.00
27294;BME280;14785;52.556;13.430;2024-01-10T03:23:57;-19316.69;;;-2.65;100.00
27294;BME280;14785;52.556;13.430;2024-01-10T03:26:23;-19316.22;;;-2.67;100.00
27294;BME280;14785;52.556;13.430;2024-01-10T03:28:49;-19315.16;;;-2.70;100.00
27294;BME280;14785;52.556;13.430;2024-01-10T03:31:15;-19313.94;;;-2.74;100.00
27294;BME280;14785;52.556;13.430;2024-01-10T03:33:40;-19314.53;;;-2.72;100.00
27294;BME280;14785;52.556;13.430;2024-01-10T03:36:07;-19314.53;;;-2.72;100.00
27294;BME280;14785;52.556;13.430;2024-01-10T03:38:34;-19316.69;;;-2.65;100.00
27294;BME280;14785;52.556;13.430;2024-01-10T03:40:59;-19315.31;;;-2.70;100.00
27294;BME280;14785;52.556;13.430;2024-01-10T03:43:24;-19316.69;;;-2.65;100.00
27294;BME280;14785;52.556;13.430;2024-01-10T03:45:50;-19319.28;;;-2.57;100.00
27294;BME280;14785;52.556;13.430;2024-01-10T03:48:18;-19318.53;;;-2.59;100.00
27294;BME280;14785;52.556;13.430;2024-01-10T03:50:44;-19316.69;;;-2.65;100.00
27294;BME280;14785;52.556;13.430;2024-01-10T03:53:10;-19312.72;;;-2.78;100.00
27294;BME280;14785;52.556;13.430;2024-01-10T03:55:35;-19308.44;;;-2.92;100.00
27294;BME280;14785;52.556;13.430;2024-01-10T03:58:01;-19312.41;;;-2.79;100.00
27294;BME280;14785;52.556;13.430;2024-01-10T04:00:28;-19314.41;;;-2.73;100.00
27294;BME280;14785;52.556;13.430;2024-01-10T04:02:53;-19320.03;;;-2.54;100.00
27294;BME280;14785;52.556;13.430;2024-01-10T04:05:19;-19318.22;;;-2.60;100.00
27294;BME280;14785;52.556;13.430;2024-01-10T04:07:45;-19320.66;;;-2.52;100.00
27294;BME280;14785;52.556;13.430;2024-01-10T04:10:14;-19320.97;;;-2.51;100.00
27294;BME280;14785;52.556;13.430;2024-01-10T04:12:40;-19322.31;;;-2.47;100.00
27294;BME280;14785;52.556;13.430;2024-01-10T04:15:06;-19321.56;;;-2.49;100.00
27294;BME280;14785;52.556;13.430;2024-01-10T04:17:31;-19323.25;;;-2.44;100.00
27294;BME280;14785;52.556;13.430;2024-01-10T04:19:58;-19322.19;;;-2.47;100.00
27294;BME280;14785;52.556;13.430;2024-01-10T04:22:24;-19322.78;;;-2.45;100.00
27294;BME280;14785;52.556;13.430;2024-01-10T04:24:50;-19317.00;;;-2.64;100.00
27294;BME280;14785;52.556;13.430;2024-01-10T04:27:15;-19318.81;;;-2.58;100.00
27294;BME280;14785;52.556;13.430;2024-01-10T04:29:40;-19309.50;;;-2.89;100.00
27294;BME280;14785;52.556;13.430;2024-01-10T04:32:07;-19317.28;;;-2.63;100.00
27294;BME280;14785;52.556;13.430;2024-01-10T04:34:33;-19318.53;;;-2.59;100.00
27294;BME280;14785;52.556;13.430;2024-01-10T04:36:58;-19317.00;;;-2.64;100.00
27294;BME280;14785;52.556;13.430;2024-01-10T04:39:24;-19317.28;;;-2.63;100.00
27294;BME280;14785;52.556;13.430;2024-01-10T04:41:49;-19317.28;;;-2.63;100.00
27294;BME280;14785;52.556;13.430;2024-01-10T04:44:15;-19319.75;;;-2.55;100.00
27294;BME280;14785;52.556;13.430;2024-01-10T04:46:40;-19319.75;;;-2.55;100.00
27294;BME280;14785;52.556;13.430;2024-01-10T04:49:07;-19319.44;;;-2.56;100.00
27294;BME280;14785;52.556;13.430;2024-01-10T04:51:32;-19319.13;;;-2.57;100.00
27294;BME280;14785;52.556;13.430;2024-01-10T04:53:58;-19321.25;;;-2.50;100.00
27294;BME280;14785;52.556;13.430;2024-01-10T04:56:23;-19318.22;;;-2.60;100.00
27294;BME280;14785;52.556;13.430;2024-01-10T04:58:49;-19317.28;;;-2.63;100.00
27294;BME280;14785;52.556;13.430;2024-01-10T05:01:16;-19313.03;;;-2.77;100.00
27294;BME280;14785;52.556;13.430;2024-01-10T05:03:42;-19312.72;;;-2.78;100.00
27294;BME280;14785;52.556;13.430;2024-01-10T05:06:08;-19312.41;;;-2.79;100.00
27294;BME280;14785;52.556;13.430;2024-01-10T05:08:33;-19313.03;;;-2.77;100.00
27294;BME280;14785;52.556;13.430;2024-01-10T05:10:59;-19320.03;;;-2.54;100.00
27294;BME280;14785;52.556;13.430;2024-01-10T05:13:24;-19321.25;;;-2.50;100.00
27294;BME280;14785;52.556;13.430;2024-01-10T05:15:51;-19320.97;;;-2.51;100.00
27294;BME280;14785;52.556;13.430;2024-01-10T05:18:16;-19315.00;;;-2.71;100.00
27294;BME280;14785;52.556;13.430;2024-01-10T05:20:42;-19317.28;;;-2.63;100.00
27294;BME280;14785;52.556;13.430;2024-01-10T05:23:10;-19320.97;;;-2.51;100.00
27294;BME280;14785;52.556;13.430;2024-01-10T05:25:35;-19323.41;;;-2.43;100.00
27294;BME280;14785;52.556;13.430;2024-01-10T05:28:01;-19324.63;;;-2.39;100.00
27294;BME280;14785;52.556;13.430;2024-01-10T05:30:26;-19323.56;;;-2.43;100.00
27294;BME280;14785;52.556;13.430;2024-01-10T05:32:52;-19314.41;;;-2.73;100.00
27294;BME280;14785;52.556;13.430;2024-01-10T05:35:18;-19305.84;;;-3.01;100.00
27294;BME280;14785;52.556;13.430;2024-01-10T05:37:43;-19314.25;;;-2.73;100.00
27294;BME280;14785;52.556;13.430;2024-01-10T05:40:09;-19314.84;;;-2.71;100.00
27294;BME280;14785;52.556;13.430;2024-01-10T05:42:35;-19316.69;;;-2.65;100.00
27294;BME280;14785;52.556;13.430;2024-01-10T05:45:01;-19318.38;;;-2.60;100.00
27294;BME280;14785;52.556;13.430;2024-01-10T05:47:27;-19321.56;;;-2.49;100.00
27294;BME280;14785;52.556;13.430;2024-01-10T05:49:53;-19322.63;;;-2.46;100.00
27294;BME280;14785;52.556;13.430;2024-01-10T05:52:19;-19324.00;;;-2.41;100.00
27294;BME280;14785;52.556;13.430;2024-01-10T05:54:45;-19320.03;;;-2.54;100.00
27294;BME280;14785;52.556;13.430;2024-01-10T05:57:11;-19315.16;;;-2.70;100.00
27294;BME280;14785;52.556;13.430;2024-01-10T05:59:38;-19316.06;;;-2.67;100.00
27294;BME280;14785;52.556;13.430;2024-01-10T06:02:03;-19317.59;;;-2.62;100.00
27294;BME280;14785;52.556;13.430;2024-01-10T06:04:30;-19306.75;;;-2.98;100.00
27294;BME280;14785;52.556;13.430;2024-01-10T06:07:00;-19307.06;;;-2.97;100.00
27294;BME280;14785;52.556;13.430;2024-01-10T06:09:26;-19309.50;;;-2.89;100.00
27294;BME280;14785;52.556;13.430;2024-01-10T06:11:52;-19317.44;;;-2.63;100.00
27294;BME280;14785;52.556;13.430;2024-01-10T06:14:17;-19317.28;;;-2.63;100.00
27294;BME280;14785;52.556;13.430;2024-01-10T06:16:43;-19322.78;;;-2.45;100.00
27294;BME280;14785;52.556;13.430;2024-01-10T06:19:11;-19326.00;;;-2.35;100.00
27294;BME280;14785;52.556;13.430;2024-01-10T06:21:38;-19324.94;;;-2.38;100.00
27294;BME280;14785;52.556;13.430;2024-01-10T06:24:04;-19327.97;;;-2.28;100.00
27294;BME280;14785;52.556;13.430;2024-01-10T06:26:30;-19320.50;;;-2.53;100.00
27294;BME280;14785;52.556;13.430;2024-01-10T06:28:55;-19318.97;;;-2.58;100.00
27294;BME280;14785;52.556;13.430;2024-01-10T06:31:21;-19309.97;;;-2.87;100.00
27294;BME280;14785;52.556;13.430;2024-01-10T06:33:46;-19318.38;;;-2.60;100.00
27294;BME280;14785;52.556;13.430;2024-01-10T06:36:12;-19319.13;;;-2.57;100.00
27294;BME280;14785;52.556;13.430;2024-01-10T06:38:41;-19318.66;;;-2.59;100.00
27294;BME280;14785;52.556;13.430;2024-01-10T06:41:10;-19324.00;;;-2.41;100.00
27294;BME280;14785;52.556;13.430;2024-01-10T06:43:37;-19325.84;;;-2.35;100.00
27294;BME280;14785;52.556;13.430;2024-01-10T06:46:03;-19325.53;;;-2.36;100.00
27294;BME280;14785;52.556;13.430;2024-01-10T06:48:29;-19326.31;;;-2.34;100.00
27294;BME280;14785;52.556;13.430;2024-01-10T06:50:56;-19328.28;;;-2.27;100.00
27294;BME280;14785;52.556;13.430;2024-01-10T06:53:21;-19329.81;;;-2.22;100.00
27294;BME280;14785;52.556;13.430;2024-01-10T06:55:47;-19327.97;;;-2.28;100.00
27294;BME280;14785;52.556;13.430;2024-01-10T06:58:12;-19325.53;;;-2.36;100.00
27294;BME280;14785;52.556;13.430;2024-01-10T07:00:38;-19326.75;;;-2.32;100.00
27294;BME280;14785;52.556;13.430;2024-01-10T07:03:04;-19327.69;;;-2.29;100.00
27294;BME280;14785;52.556;13.430;2024-01-10T07:05:30;-19325.22;;;-2.37;100.00
27294;BME280;14785;52.556;13.430;2024-01-10T07:08:00;-19323.41;;;-2.43;100.00
27294;BME280;14785;52.556;13.430;2024-01-10T07:10:30;-19324.00;;;-2.41;100.00
27294;BME280;14785;52.556;13.430;2024-01-10T07:12:58;-19326.16;;;-2.34;100.00
27294;BME280;14785;52.556;13.430;2024-01-10T07:15:24;-19326.00;;;-2.35;100.00
27294;BME280;14785;52.556;13.430;2024-01-10T07:17:49;-19322.47;;;-2.46;100.00
27294;BME280;14785;52.556;13.430;2024-01-10T07:20:15;-19325.53;;;-2.36;100.00
27294;BME280;14785;52.556;13.430;2024-01-10T07:22:41;-19327.81;;;-2.29;100.00
27294;BME280;14785;52.556;13.430;2024-01-10T07:25:09;-19327.06;;;-2.31;100.00
27294;BME280;14785;52.556;13.430;2024-01-10T07:27:38;-19328.59;;;-2.26;100.00
27294;BME280;14785;52.556;13.430;2024-01-10T07:30:05;-19329.81;;;-2.22;100.00
27294;BME280;14785;52.556;13.430;2024-01-10T07:32:36;-19334.38;;;-2.07;100.00
27294;BME280;14785;52.556;13.430;2024-01-10T07:35:02;-19332.56;;;-2.13;100.00
27294;BME280;14785;52.556;13.430;2024-01-10T07:37:27;-19334.53;;;-2.07;100.00
27294;BME280;14785;52.556;13.430;2024-01-10T07:39:54;-19328.75;;;-2.26;100.00
27294;BME280;14785;52.556;13.430;2024-01-10T07:42:22;-19337.44;;;-1.97;100.00
27294;BME280;14785;52.556;13.430;2024-01-10T07:44:48;-19335.59;;;-2.03;100.00
27294;BME280;14785;52.556;13.430;2024-01-10T07:47:13;-19330.72;;;-2.19;100.00
27294;BME280;14785;52.556;13.430;2024-01-10T07:49:39;-19331.50;;;-2.17;100.00
27294;BME280;14785;52.556;13.430;2024-01-10T07:52:04;-19335.31;;;-2.04;100.00
27294;BME280;14785;52.556;13.430;2024-01-10T07:54:30;-19336.53;;;-2.00;100.00
27294;BME280;14785;52.556;13.430;2024-01-10T07:56:57;-19333.94;;;-2.09;100.00
27294;BME280;14785;52.556;13.430;2024-01-10T07:59:23;-19334.09;;;-2.08;100.00
27294;BME280;14785;52.556;13.430;2024-01-10T08:01:56;-19338.97;;;-1.92;100.00
27294;BME280;14785;52.556;13.430;2024-01-10T08:04:24;-19327.38;;;-2.30;100.00
27294;BME280;14785;52.556;13.430;2024-01-10T08:06:49;-19318.66;;;-2.59;100.00
27294;BME280;14785;52.556;13.430;2024-01-10T08:09:15;-19319.75;;;-2.55;100.00
27294;BME280;14785;52.556;13.430;2024-01-10T08:11:40;-19312.72;;;-2.78;100.00
27294;BME280;14785;52.556;13.430;2024-01-10T08:14:06;-19324.31;;;-2.40;100.00
27294;BME280;14785;52.556;13.430;2024-01-10T08:16:31;-19329.34;;;-2.24;100.00
27294;BME280;14785;52.556;13.430;2024-01-10T08:18:57;-19320.03;;;-2.54;100.00
27294;BME280;14785;52.556;13.430;2024-01-10T08:21:24;-19308.75;;;-2.91;100.00
27294;BME280;14785;52.556;13.430;2024-01-10T08:23:50;-19310.41;;;-2.86;100.00
27294;BME280;14785;52.556;13.430;2024-01-10T08:26:15;-19309.34;;;-2.89;100.00
27294;BME280;14785;52.556;13.430;2024-01-10T08:28:41;-19309.81;;;-2.88;100.00
27294;BME280;14785;52.556;13.430;2024-01-10T08:31:07;-19301.72;;;-3.14;100.00
27294;BME280;14785;52.556;13.430;2024-01-10T08:33:33;-19309.97;;;-2.87;100.00
27294;BME280;14785;52.556;13.430;2024-01-10T08:35:58;-19323.69;;;-2.42;100.00
27294;BME280;14785;52.556;13.430;2024-01-10T08:38:24;-19320.66;;;-2.52;100.00
27294;BME280;14785;52.556;13.430;2024-01-10T08:40:50;-19313.63;;;-2.75;100.00
27294;BME280;14785;52.556;13.430;2024-01-10T08:43:15;-19314.84;;;-2.71;100.00
27294;BME280;14785;52.556;13.430;2024-01-10T08:45:40;-19326.16;;;-2.34;100.00
27294;BME280;14785;52.556;13.430;2024-01-10T08:48:06;-19328.28;;;-2.27;100.00
27294;BME280;14785;52.556;13.430;2024-01-10T08:50:35;-19331.34;;;-2.17;100.00
27294;BME280;14785;52.556;13.430;2024-01-10T08:53:01;-19323.84;;;-2.42;100.00
27294;BME280;14785;52.556;13.430;2024-01-10T08:55:30;-19323.25;;;-2.44;100.00
27294;BME280;14785;52.556;13.430;2024-01-10T08:57:56;-19324.00;;;-2.41;100.00
27294;BME280;14785;52.556;13.430;2024-01-10T09:00:21;-19333.31;;;-2.11;100.00
27294;BME280;14785;52.556;13.430;2024-01-10T09:02:47;-19337.59;;;-1.97;100.00
27294;BME280;14785;52.556;13.430;2024-01-10T09:05:12;-19341.09;;;-1.85;100.00
27294;BME280;14785;52.556;13.430;2024-01-10T09:07:38;-19331.94;;;-2.15;100.00
27294;BME280;14785;52.556;13.430;2024-01-10T09:10:05;-19338.19;;;-1.95;100.00
27294;BME280;14785;52.556;13.430;2024-01-10T09:12:34;-19340.81;;;-1.86;100.00
27294;BME280;14785;52.556;13.430;2024-01-10T09:15:00;-19344.16;;;-1.75;100.00
27294;BME280;14785;52.556;13.430;2024-01-10T09:17:26;-19344.63;;;-1.73;100.00
27294;BME280;14785;52.556;13.430;2024-01-10T09:19:53;-19343.84;;;-1.76;100.00
27294;BME280;14785;52.556;13.430;2024-01-10T09:22:19;-19339.56;;;-1.90;100.00
27294;BME280;14785;52.556;13.430;2024-01-10T09:24:44;-19320.97;;;-2.51;100.00
27294;BME280;14785;52.556;13.430;2024-01-10T09:27:10;-19336.69;;;-2.00;100.00
27294;BME280;14785;52.556;13.430;2024-01-10T09:29:35;-19342.63;;;-1.80;100.00
27294;BME280;14785;52.556;13.430;2024-01-10T09:32:04;-19347.50;;;-1.64;100.00
27294;BME280;14785;52.556;13.430;2024-01-10T09:34:29;-19349.97;;;-1.56;100.00
27294;BME280;14785;52.556;13.430;2024-01-10T09:36:55;-19348.44;;;-1.61;100.00
27294;BME280;14785;52.556;13.430;2024-01-10T09:39:20;-19350.88;;;-1.53;100.00
27294;BME280;14785;52.556;13.430;2024-01-10T09:41:47;-19349.03;;;-1.59;100.00
27294;BME280;14785;52.556;13.430;2024-01-10T09:44:20;-19360.19;;;-1.22;100.00
27294;BME280;14785;52.556;13.430;2024-01-10T09:46:50;-19369.50;;;-0.92;100.00
27294;BME280;14785;52.556;13.430;2024-01-10T09:49:16;-19364.59;;;-1.08;100.00
27294;BME280;14785;52.556;13.430;2024-01-10T09:51:42;-19365.53;;;-1.05;100.00
27294;BME280;14785;52.556;13.430;2024-01-10T09:54:09;-19367.81;;;-0.97;100.00
27294;BME280;14785;52.556;13.430;2024-01-10T09:56:34;-19377.28;;;-0.66;100.00
27294;BME280;14785;52.556;13.430;2024-01-10T09:59:01;-19398.47;;;0.03;100.00
27294;BME280;14785;52.556;13.430;2024-01-10T10:01:31;-19406.09;;;0.29;100.00
27294;BME280;14785;52.556;13.430;2024-01-10T10:03:57;-19418.59;;;0.70;100.00
27294;BME280;14785;52.556;13.430;2024-01-10T10:06:24;-19443.28;;;1.51;100.00
27294;BME280;14785;52.556;13.430;2024-01-10T10:08:49;-19442.22;;;1.47;100.00
27294;BME280;14785;52.556;13.430;2024-01-10T10:11:15;-19440.25;;;1.41;100.00
27294;BME280;14785;52.556;13.430;2024-01-10T10:13:40;-19457.59;;;1.98;100.00
27294;BME280;14785;52.556;13.430;2024-01-10T10:16:07;-19473.91;;;2.52;100.00
27294;BME280;14785;52.556;13.430;2024-01-10T10:18:34;-19462.78;;;2.15;100.00
27294;BME280;14785;52.556;13.430;2024-01-10T10:23:32;-19469.03;;;2.36;100.00
27294;BME280;14785;52.556;13.430;2024-01-10T10:25:58;-19475.59;;;2.57;100.00
27294;BME280;14785;52.556;13.430;2024-01-10T10:28:28;-19489.31;;;3.02;100.00
27294;BME280;14785;52.556;13.430;2024-01-10T10:30:55;-19499.03;;;3.34;100.00
27294;BME280;14785;52.556;13.430;2024-01-10T10:33:20;-19513.97;;;3.83;100.00
27294;BME280;14785;52.556;13.430;2024-01-10T10:35:46;-19525.84;;;4.23;100.00
27294;BME280;14785;52.556;13.430;2024-01-10T10:38:12;-19504.69;;;3.53;100.00
27294;BME280;14785;52.556;13.430;2024-01-10T10:40:37;-19523.09;;;4.14;100.00
27294;BME280;14785;52.556;13.430;2024-01-10T10:43:04;-19513.03;;;3.80;100.00
27294;BME280;14785;52.556;13.430;2024-01-10T10:45:31;-19535.88;;;4.56;100.00
27294;BME280;14785;52.556;13.430;2024-01-10T10:48:00;-19543.50;;;4.81;100.00
27294;BME280;14785;52.556;13.430;2024-01-10T10:50:30;-19536.50;;;4.58;100.00
27294;BME280;14785;52.556;13.430;2024-01-10T10:52:58;-19517.94;;;3.97;100.00
27294;BME280;14785;52.556;13.430;2024-01-10T10:55:26;-19543.19;;;4.80;100.00
27294;BME280;14785;52.556;13.430;2024-01-10T10:57:53;-19560.84;;;5.38;100.00
27294;BME280;14785;52.556;13.430;2024-01-10T11:00:21;-19567.53;;;5.60;99.49
27294;BME280;14785;52.556;13.430;2024-01-10T11:02:53;-19571.19;;;5.72;99.07
27294;BME280;14785;52.556;13.430;2024-01-10T11:05:20;-19577.25;;;5.92;92.91
27294;BME280;14785;52.556;13.430;2024-01-10T11:07:45;-19568.13;;;5.62;92.52
27294;BME280;14785;52.556;13.430;2024-01-10T11:10:31;-19567.06;;;5.58;98.67
27294;BME280;14785;52.556;13.430;2024-01-10T11:13:18;-19592.47;;;6.42;97.23
27294;BME280;14785;52.556;13.430;2024-01-10T11:22:28;-19563.56;;;5.47;100.00
27294;BME280;14785;52.556;13.430;2024-01-10T11:25:36;-19574.22;;;5.82;97.38
27294;BME280;14785;52.556;13.430;2024-01-10T11:28:05;-19567.22;;;5.59;90.22
27294;BME280;14785;52.556;13.430;2024-01-10T11:30:37;-19563.28;;;5.46;91.52
27294;BME280;14785;52.556;13.430;2024-01-10T11:33:23;-19554.75;;;5.18;89.12
27294;BME280;14785;52.556;13.430;2024-01-10T11:36:08;-19551.41;;;5.07;89.77
27294;BME280;14785;52.556;13.430;2024-01-10T11:38:44;-19543.78;;;4.82;90.79
27294;BME280;14785;52.556;13.430;2024-01-10T11:41:19;-19548.06;;;4.96;93.48
27294;BME280;14785;52.556;13.430;2024-01-10T11:43:45;-19548.66;;;4.98;91.92
27294;BME280;14785;52.556;13.430;2024-01-10T11:46:12;-19561.44;;;5.40;91.97
27294;BME280;14785;52.556;13.430;2024-01-10T11:48:38;-19566.00;;;5.55;93.29
27294;BME280;14785;52.556;13.430;2024-01-10T11:51:04;-19556.88;;;5.25;91.77
27294;BME280;14785;52.556;13.430;2024-01-10T11:53:43;-19558.09;;;5.29;94.73
27294;BME280;14785;52.556;13.430;2024-01-10T11:56:13;-19583.34;;;6.12;91.36
27294;BME280;14785;52.556;13.430;2024-01-10T11:59:15;-19571.03;;;5.71;89.19
27294;BME280;14785;52.556;13.430;2024-01-10T12:01:42;-19559.31;;;5.33;92.14
27294;BME280;14785;52.556;13.430;2024-01-10T12:04:08;-19568.44;;;5.63;97.65
27294;BME280;14785;52.556;13.430;2024-01-10T12:06:35;-19563.88;;;5.48;93.00
27294;BME280;14785;52.556;13.430;2024-01-10T12:09:02;-19562.66;;;5.44;93.20
27294;BME280;14785;52.556;13.430;2024-01-10T12:11:40;-19559.16;;;5.32;90.41
27294;BME280;14785;52.556;13.430;2024-01-10T12:14:08;-19563.13;;;5.45;89.74
27294;BME280;14785;52.556;13.430;2024-01-10T12:16:33;-19558.09;;;5.29;97.15
27294;BME280;14785;52.556;13.430;2024-01-10T12:18:59;-19548.66;;;4.98;95.73
27294;BME280;14785;52.556;13.430;2024-01-10T12:21:24;-19550.50;;;5.04;88.94
27294;BME280;14785;52.556;13.430;2024-01-10T12:23:50;-19561.13;;;5.39;90.78
27294;BME280;14785;52.556;13.430;2024-01-10T12:26:16;-19552.31;;;5.10;90.39
27294;BME280;14785;52.556;13.430;2024-01-10T12:29:01;-19551.72;;;5.08;87.49
27294;BME280;14785;52.556;13.430;2024-01-10T12:31:30;-19573.59;;;5.80;91.86
27294;BME280;14785;52.556;13.430;2024-01-10T12:33:56;-19570.88;;;5.71;89.63
27294;BME280;14785;52.556;13.430;2024-01-10T12:36:21;-19584.88;;;6.17;94.16
27294;BME280;14785;52.556;13.430;2024-01-10T12:38:47;-19575.44;;;5.86;89.90
27294;BME280;14785;52.556;13.430;2024-01-10T12:41:15;-19562.03;;;5.42;84.14